Time;durP1;ratioP1;P1;durP2;ratioP2;P2;SDS_P1;SDS_P2;PMS_P1;PMS_P2;Temp;Humidity;BMP_temperature;BMP_pressure;BME280_temperature;BME280_humidity;BME280_pressure;Samples;Min_cycle;Max_cycle;Signal;HPM_P1;HPM_P2
2021/12/18 00:01:15;;;;;;;26.20;12.13;;;;;;;1.42;100.00;97017.25;5095220;28;20449;-34
2021/12/18 00:03:42;;;;;;;26.37;11.03;;;;;;;1.41;100.00;97015.59;5095161;28;20446;-36
2021/12/18 00:06:10;;;;;;;18.13;8.20;;;;;;;1.37;100.00;97011.69;5095320;28;20478;-34
2021/12/18 00:08:39;;;;;;;18.50;9.57;;;;;;;1.22;100.00;96996.72;5095246;28;20446;-35
2021/12/18 00:11:06;;;;;;;20.80;9.93;;;;;;;1.35;100.00;97022.31;5095001;28;20935;-34
2021/12/18 00:13:34;;;;;;;20.50;7.60;;;;;;;1.32;100.00;97011.41;5095015;28;20450;-35
2021/12/18 00:16:02;;;;;;;30.00;14.23;;;;;;;1.21;100.00;97008.19;5094866;28;20443;-39
2021/12/18 00:18:30;;;;;;;15.90;9.33;;;;;;;1.29;100.00;97012.56;5095190;28;20450;-39
2021/12/18 00:20:58;;;;;;;19.40;9.50;;;;;;;1.31;100.00;97020.22;5094830;28;20957;-39
2021/12/18 00:23:25;;;;;;;22.70;10.00;;;;;;;1.27;100.00;97024.16;5094733;28;20443;-39
2021/12/18 00:25:54;;;;;;;27.33;9.03;;;;;;;1.28;100.00;97026.63;5094895;28;20443;-39
2021/12/18 00:28:22;;;;;;;24.80;9.77;;;;;;;1.29;100.00;97037.88;5094764;28;20493;-39
2021/12/18 00:30:49;;;;;;;19.17;9.17;;;;;;;1.28;100.00;97025.81;5094884;28;20443;-39
2021/12/18 00:33:16;;;;;;;20.37;9.10;;;;;;;1.30;100.00;97029.06;5094489;28;20449;-39
2021/12/18 00:35:44;;;;;;;14.80;7.10;;;;;;;1.34;100.00;97030.38;5095662;28;20447;-39
2021/12/18 00:38:11;;;;;;;16.23;8.57;;;;;;;1.16;100.00;97018.34;5094481;28;20937;-38
2021/12/18 00:40:46;;;;;;;20.73;10.40;;;;;;;1.35;100.00;97031.97;5094476;28;20517;-39
2021/12/18 00:43:26;;;;;;;9.43;7.20;;;;;;;1.35;100.00;97026.75;5094444;28;20430;-39
2021/12/18 00:45:54;;;;;;;12.70;7.30;;;;;;;1.32;100.00;97029.72;5094349;28;20435;-39
2021/12/18 00:48:22;;;;;;;16.13;7.60;;;;;;;1.29;100.00;97027.44;5094591;28;20457;-39
2021/12/18 00:50:49;;;;;;;17.30;8.90;;;;;;;1.13;100.00;97004.78;5094290;28;20434;-39
2021/12/18 00:53:17;;;;;;;14.03;7.70;;;;;;;1.29;100.00;97030.03;5095339;28;20840;-39
2021/12/18 00:55:44;;;;;;;12.37;8.00;;;;;;;1.28;100.00;97031.03;5094207;28;20438;-39
2021/12/18 00:58:12;;;;;;;9.97;7.10;;;;;;;1.27;100.00;97032.00;5094199;28;20447;-39
2021/12/18 01:00:42;;;;;;;23.00;9.17;;;;;;;1.12;100.00;97017.06;5094117;28;20439;-38
2021/12/18 01:03:16;;;;;;;21.33;9.63;;;;;;;1.25;100.00;97031.38;5094076;28;20431;-39
2021/12/18 01:05:45;;;;;;;17.33;8.57;;;;;;;1.28;100.00;97036.28;5094082;28;20426;-39
2021/12/18 01:08:12;;;;;;;16.20;7.80;;;;;;;1.25;100.00;97033.97;5095054;28;20490;-38
2021/12/18 01:10:56;;;;;;;18.77;8.33;;;;;;;1.25;100.00;97031.38;5093914;28;20450;-35
2021/12/18 01:13:29;;;;;;;16.43;8.13;;;;;;;1.22;100.00;97027.31;5094183;28;20481;-38
2021/12/18 01:16:07;;;;;;;16.40;8.43;;;;;;;1.19;100.00;97025.03;5094166;28;20431;-35
2021/12/18 01:24:03;;;;;;;17.93;9.27;;;;;;;1.13;100.00;97029.16;5093873;28;20406;-38
2021/12/18 01:26:31;;;;;;;16.50;8.47;;;;;;;1.12;100.00;97022.31;5093644;28;20892;-38
2021/12/18 01:28:58;;;;;;;15.37;7.20;;;;;;;1.12;100.00;97024.91;5093428;28;20475;-38
2021/12/18 01:31:27;;;;;;;18.70;8.40;;;;;;;1.00;100.00;97007.97;5093945;28;20458;-36
2021/12/18 01:33:54;;;;;;;15.90;7.57;;;;;;;1.16;100.00;97023.59;5093595;28;20926;-35
2021/12/18 01:36:22;;;;;;;20.40;9.20;;;;;;;1.15;100.00;97027.19;5093552;28;20447;-35
2021/12/18 01:38:49;;;;;;;17.10;7.87;;;;;;;1.14;100.00;97015.09;5093604;28;20454;-36
2021/12/18 01:41:18;;;;;;;13.40;7.17;;;;;;;1.14;100.00;97020.31;5093550;28;20435;-34
2021/12/18 01:46:41;;;;;;;12.83;6.53;;;;;;;1.11;100.00;97004.97;5072324;28;20477;-34
2021/12/18 01:52:05;;;;;;;15.60;9.03;;;;;;;1.13;100.00;97028.34;5093734;28;20485;-35
2021/12/18 01:54:32;;;;;;;20.20;7.73;;;;;;;1.12;100.00;97016.22;5093416;28;20466;-35
2021/12/18 01:57:00;;;;;;;16.47;8.53;;;;;;;0.96;100.00;96990.97;5093419;28;20450;-35
2021/12/18 01:59:38;;;;;;;15.70;8.53;;;;;;;1.07;100.00;97008.09;5093617;28;20500;-35
2021/12/18 02:02:07;;;;;;;15.90;8.67;;;;;;;1.10;100.00;97019.03;5093380;28;20478;-35
2021/12/18 02:04:35;;;;;;;13.93;7.90;;;;;;;1.08;100.00;97031.47;5093195;28;21060;-35
2021/12/18 02:07:04;;;;;;;17.53;9.00;;;;;;;1.08;100.00;97031.47;5093241;28;20519;-34
2021/12/18 02:09:49;;;;;;;18.10;9.03;;;;;;;1.06;100.00;97022.97;5093242;28;20439;-34
2021/12/18 02:12:19;;;;;;;14.50;8.90;;;;;;;1.07;100.00;97029.81;5093374;28;20438;-34
2021/12/18 02:20:40;;;;;;;14.67;7.67;;;;;;;1.05;100.00;97038.81;5051242;28;20408;-35
2021/12/18 02:23:08;;;;;;;18.60;6.93;;;;;;;1.07;100.00;97039.47;5077239;28;20439;-35
2021/12/18 02:25:36;;;;;;;15.77;7.00;;;;;;;1.05;100.00;97037.03;5093383;28;20446;-34
2021/12/18 02:28:08;;;;;;;16.30;8.53;;;;;;;1.10;100.00;97039.97;5093021;28;20483;-35
2021/12/18 02:30:35;;;;;;;14.20;8.40;;;;;;;1.12;100.00;97043.22;5093044;28;20481;-35
2021/12/18 02:33:03;;;;;;;22.93;7.80;;;;;;;0.93;100.00;97007.84;5093081;28;20443;-34
2021/12/18 02:35:32;;;;;;;19.30;9.10;;;;;;;1.09;100.00;97030.47;5093020;28;20806;-34
2021/12/18 02:38:12;;;;;;;18.53;7.87;;;;;;;0.96;100.00;97031.00;5093303;28;20446;-35
2021/12/18 02:41:02;;;;;;;12.10;7.17;;;;;;;0.94;100.00;97027.75;5093085;28;20431;-38
2021/12/18 02:43:33;;;;;;;15.97;7.57;;;;;;;1.09;100.00;97033.09;5092992;28;20431;-38
2021/12/18 02:46:06;;;;;;;13.67;8.33;;;;;;;1.07;100.00;97040.28;5092946;28;20427;-38
2021/12/18 02:48:34;;;;;;;17.33;7.40;;;;;;;1.06;100.00;97041.28;5092897;28;20489;-38
2021/12/18 02:51:03;;;;;;;21.83;9.63;;;;;;;1.03;100.00;97039.00;5092891;28;20914;-38
2021/12/18 02:53:32;;;;;;;12.77;7.57;;;;;;;0.99;100.00;97049.00;5092871;28;20443;-39
2021/12/18 02:56:04;;;;;;;12.47;6.20;;;;;;;0.82;100.00;97022.09;5094030;28;20446;-38
2021/12/18 02:58:32;;;;;;;16.70;8.00;;;;;;;0.98;100.00;97042.13;5096783;28;20428;-38
2021/12/18 03:01:02;;;;;;;23.10;8.80;;;;;;;0.99;100.00;97053.38;5096436;28;20526;-39
2021/12/18 03:03:32;;;;;;;13.63;8.20;;;;;;;1.00;100.00;97050.59;5096330;28;20445;-38
2021/12/18 03:06:14;;;;;;;21.67;9.73;;;;;;;1.02;100.00;97058.28;5096362;28;20431;-38
2021/12/18 03:08:50;;;;;;;34.40;12.00;;;;;;;1.04;100.00;97056.31;5096152;28;20565;-38
2021/12/18 03:22:56;;;;;;;23.13;10.17;;;;;;;1.11;100.00;97070.34;5078405;28;20435;-38
2021/12/18 03:25:27;;;;;;;16.80;9.83;;;;;;;1.12;100.00;97066.75;5096257;28;20435;-37
2021/12/18 03:27:58;;;;;;;20.50;7.03;;;;;;;1.10;100.00;97062.66;5096173;28;20501;-38
2021/12/18 03:30:25;;;;;;;11.60;7.13;;;;;;;1.07;100.00;97071.66;5095900;28;20465;-38
2021/12/18 03:32:53;;;;;;;14.90;7.27;;;;;;;1.05;100.00;97076.25;5095738;28;20444;-38
2021/12/18 03:35:21;;;;;;;15.40;8.47;;;;;;;1.07;100.00;97065.63;5095747;28;20910;-39
2021/12/18 03:37:48;;;;;;;13.97;9.20;;;;;;;1.05;100.00;97051.91;5095665;28;20449;-38
2021/12/18 03:40:18;;;;;;;20.03;8.57;;;;;;;1.05;100.00;97052.72;5095682;28;20447;-38
2021/12/18 03:42:47;;;;;;;16.53;8.23;;;;;;;1.03;100.00;97059.91;5096440;28;20933;-38
2021/12/18 03:45:17;;;;;;;17.43;8.57;;;;;;;1.07;100.00;97061.19;5095553;28;20451;-38
2021/12/18 03:47:45;;;;;;;13.03;7.87;;;;;;;1.09;100.00;97064.47;5095718;28;20497;-38
2021/12/18 03:50:12;;;;;;;21.20;7.33;;;;;;;1.06;100.00;97064.81;5095676;28;20443;-39
2021/12/18 03:52:40;;;;;;;29.70;11.00;;;;;;;0.99;100.00;97069.06;5095707;28;20450;-38
2021/12/18 03:55:08;;;;;;;9.20;6.00;;;;;;;1.04;100.00;97082.47;5095210;28;20446;-38
2021/12/18 03:57:36;;;;;;;17.23;9.07;;;;;;;0.97;100.00;97092.00;5095424;28;20444;-38
2021/12/18 04:00:08;;;;;;;13.27;8.87;;;;;;;0.96;100.00;97080.69;5095271;28;20439;-38
2021/12/18 04:02:36;;;;;;;19.70;8.23;;;;;;;0.92;100.00;97083.81;5095474;28;20419;-37
2021/12/18 04:05:03;;;;;;;7.57;5.20;;;;;;;0.86;100.00;97089.72;5095475;28;20443;-37
2021/12/18 04:07:31;;;;;;;15.07;7.60;;;;;;;0.81;100.00;97098.06;5094855;28;20490;-38
2021/12/18 04:09:58;;;;;;;17.43;7.30;;;;;;;0.82;100.00;97100.50;5095049;28;20957;-38
2021/12/18 04:12:25;;;;;;;17.70;9.07;;;;;;;0.81;100.00;97098.88;5094992;28;20438;-38
2021/12/18 04:14:52;;;;;;;25.00;11.13;;;;;;;0.86;100.00;97102.78;5095297;28;20458;-38
2021/12/18 04:17:21;;;;;;;13.40;8.17;;;;;;;0.86;100.00;97089.72;5094884;28;20439;-37
2021/12/18 04:19:48;;;;;;;16.93;9.73;;;;;;;0.90;100.00;97096.22;5094872;28;20446;-38
2021/12/18 04:22:16;;;;;;;15.90;9.40;;;;;;;0.88;100.00;97103.44;5094807;28;20935;-38
2021/12/18 04:24:43;;;;;;;16.53;9.40;;;;;;;0.87;100.00;97099.19;5094785;28;20434;-38
2021/12/18 04:27:10;;;;;;;21.87;11.80;;;;;;;0.84;100.00;97107.34;5094772;28;20918;-38
2021/12/18 04:29:37;;;;;;;19.47;9.30;;;;;;;0.84;100.00;97118.66;5094583;28;20479;-38
2021/12/18 04:32:05;;;;;;;18.70;8.20;;;;;;;0.82;100.00;97107.53;5094871;28;20435;-35
2021/12/18 04:34:34;;;;;;;36.03;13.77;;;;;;;0.84;100.00;97113.44;5094627;28;20439;-35
2021/12/18 04:37:01;;;;;;;22.90;10.33;;;;;;;0.83;100.00;97117.00;5094790;28;20447;-36
2021/12/18 04:39:28;;;;;;;23.87;9.87;;;;;;;0.82;100.00;97110.97;5095129;28;20443;-37
2021/12/18 04:41:57;;;;;;;16.57;8.00;;;;;;;0.82;100.00;97115.38;5094443;28;20614;-35
2021/12/18 04:44:25;;;;;;;15.30;8.20;;;;;;;0.82;100.00;97120.63;5094688;28;20866;-35
2021/12/18 04:46:53;;;;;;;12.80;8.43;;;;;;;0.84;100.00;97133.50;5094962;28;20446;-35
2021/12/18 04:49:20;;;;;;;16.40;8.40;;;;;;;0.81;100.00;97145.13;5094571;28;20574;-35
2021/12/18 04:51:49;;;;;;;14.90;8.17;;;;;;;0.84;100.00;97136.13;5094272;28;20449;-35
2021/12/18 04:54:16;;;;;;;21.53;8.50;;;;;;;0.85;100.00;97143.81;5094200;28;20440;-35
2021/12/18 04:56:44;;;;;;;27.73;10.03;;;;;;;0.81;100.00;97148.53;5094222;28;20944;-35
2021/12/18 04:59:12;;;;;;;16.80;9.93;;;;;;;0.81;100.00;97161.59;5094067;28;20454;-35
2021/12/18 05:01:40;;;;;;;22.50;13.00;;;;;;;0.75;100.00;97135.31;5094416;28;20488;-35
2021/12/18 05:04:09;;;;;;;34.57;14.03;;;;;;;0.85;100.00;97164.72;5094071;28;20471;-34
2021/12/18 05:06:39;;;;;;;24.40;12.53;;;;;;;0.74;100.00;97158.03;5094065;28;20447;-35
2021/12/18 05:09:08;;;;;;;23.10;13.20;;;;;;;0.85;100.00;97171.75;5094293;28;20498;-38
2021/12/18 05:11:35;;;;;;;13.87;7.27;;;;;;;0.85;100.00;97161.28;5093908;28;20450;-38
2021/12/18 05:14:03;;;;;;;15.73;8.30;;;;;;;0.87;100.00;97165.38;5093773;28;21013;-38
2021/12/18 05:16:30;;;;;;;13.23;7.87;;;;;;;0.88;100.00;97155.72;5093826;28;20445;-38
2021/12/18 05:18:57;;;;;;;19.17;8.77;;;;;;;0.87;100.00;97160.13;5093033;28;20778;-38
2021/12/18 05:21:25;;;;;;;33.03;13.67;;;;;;;0.80;100.00;97173.06;5094614;28;20453;-38
2021/12/18 05:23:52;;;;;;;53.60;24.07;;;;;;;0.71;100.00;97171.44;5093718;28;20439;-38
2021/12/18 05:26:21;;;;;;;116.53;53.33;;;;;;;0.80;100.00;97187.94;5093998;28;20915;-38
2021/12/18 05:28:48;;;;;;;56.10;20.70;;;;;;;0.75;100.00;97169.28;5093566;28;20864;-38
2021/12/18 05:31:17;;;;;;;35.73;17.57;;;;;;;0.76;100.00;97171.75;5093811;28;20446;-38
2021/12/18 05:33:48;;;;;;;22.00;12.70;;;;;;;0.59;100.00;97162.28;5094398;28;20470;-38
2021/12/18 05:36:32;;;;;;;17.00;10.63;;;;;;;0.65;100.00;97179.94;5093678;28;20428;-38
2021/12/18 05:39:01;;;;;;;25.63;12.33;;;;;;;0.58;100.00;97177.16;5093791;28;20845;-38
2021/12/18 05:41:30;;;;;;;16.63;8.83;;;;;;;0.64;100.00;97180.09;5093848;28;20451;-37
2021/12/18 05:43:57;;;;;;;13.37;6.83;;;;;;;0.65;100.00;97185.16;5093459;28;20443;-38
2021/12/18 05:46:25;;;;;;;8.80;7.00;;;;;;;0.63;100.00;97179.28;5093800;28;20446;-37
2021/12/18 05:48:53;;;;;;;13.50;6.13;;;;;;;0.60;100.00;97184.81;5093862;28;20498;-38
2021/12/18 05:51:20;;;;;;;11.07;6.80;;;;;;;0.67;100.00;97183.19;5093380;28;20440;-38
2021/12/18 05:53:48;;;;;;;12.80;6.27;;;;;;;0.67;100.00;97195.44;5093399;28;20454;-38
2021/12/18 05:56:15;;;;;;;11.37;6.20;;;;;;;0.66;100.00;97184.16;5093381;28;20488;-38
2021/12/18 05:58:44;;;;;;;11.67;7.43;;;;;;;0.69;100.00;97178.63;5093409;28;20439;-38
2021/12/18 06:01:13;;;;;;;11.43;6.20;;;;;;;0.63;100.00;97165.41;5093329;28;20450;-38
2021/12/18 06:03:41;;;;;;;12.60;5.80;;;;;;;0.67;100.00;97179.75;5094146;28;20446;-38
2021/12/18 06:06:09;;;;;;;15.00;8.00;;;;;;;0.61;100.00;97191.69;5093309;28;20446;-38
2021/12/18 06:08:37;;;;;;;14.90;10.07;;;;;;;0.58;100.00;97171.09;5093458;28;20486;-38
2021/12/18 06:11:08;;;;;;;24.97;8.50;;;;;;;0.58;100.00;97171.94;5090563;28;20485;-39
2021/12/18 06:13:36;;;;;;;16.60;9.53;;;;;;;0.19;100.00;97109.06;5091542;28;20431;-38
2021/12/18 06:16:06;;;;;;;14.97;7.80;;;;;;;0.59;100.00;97180.59;5091224;28;20442;-39
2021/12/18 06:18:35;;;;;;;16.50;9.33;;;;;;;0.47;100.00;97163.59;5091474;28;20505;-38
2021/12/18 06:21:03;;;;;;;14.80;8.93;;;;;;;0.61;100.00;97191.69;5091457;28;20937;-39
2021/12/18 06:23:30;;;;;;;22.67;9.43;;;;;;;0.62;100.00;97198.53;5090695;28;20453;-39
2021/12/18 06:25:58;;;;;;;21.50;11.90;;;;;;;0.60;100.00;97211.78;5091082;28;20451;-38
2021/12/18 06:28:25;;;;;;;11.63;6.87;;;;;;;0.63;100.00;97235.97;5090786;28;20577;-39
2021/12/18 06:30:53;;;;;;;13.00;7.77;;;;;;;0.61;100.00;97239.53;5093820;28;20431;-38
2021/12/18 06:33:22;;;;;;;14.13;8.73;;;;;;;0.67;100.00;97260.75;5094937;28;20533;-38
2021/12/18 06:35:49;;;;;;;11.67;6.40;;;;;;;0.72;100.00;97264.53;5094397;28;20439;-38
2021/12/18 06:38:17;;;;;;;19.23;8.13;;;;;;;0.74;100.00;97272.22;5094921;28;20453;-37
2021/12/18 06:40:44;;;;;;;10.97;6.23;;;;;;;0.77;100.00;97270.09;5094822;28;20445;-38
2021/12/18 06:43:11;;;;;;;16.83;7.27;;;;;;;0.80;100.00;97285.47;5094817;28;20446;-39
2021/12/18 06:45:39;;;;;;;19.23;9.50;;;;;;;0.82;100.00;97286.13;5094889;28;20438;-38
2021/12/18 06:48:06;;;;;;;15.53;7.23;;;;;;;0.77;100.00;97271.88;5094844;28;20849;-35
2021/12/18 06:50:36;;;;;;;40.73;20.93;;;;;;;0.89;100.00;97290.69;5094413;28;20449;-34
2021/12/18 06:53:05;;;;;;;23.77;12.47;;;;;;;0.96;100.00;97294.28;5094979;28;20424;-35
2021/12/18 06:55:33;;;;;;;34.07;17.50;;;;;;;1.06;100.00;97300.19;5094795;28;20442;-36
2021/12/18 06:58:01;;;;;;;37.03;16.67;;;;;;;1.09;100.00;97288.56;5094692;28;20442;-36
2021/12/18 07:00:29;;;;;;;198.73;74.33;;;;;;;1.19;100.00;97284.00;5094212;28;20957;-35
2021/12/18 07:02:57;;;;;;;71.73;31.17;;;;;;;1.13;100.00;97275.00;5093925;28;20451;-35
2021/12/18 07:05:24;;;;;;;24.00;13.87;;;;;;;1.20;100.00;97290.84;5094566;28;20439;-36
2021/12/18 07:07:53;;;;;;;15.17;8.80;;;;;;;1.15;100.00;97283.50;5094243;28;20443;-35
2021/12/18 07:10:20;;;;;;;11.30;6.70;;;;;;;1.16;100.00;97281.69;5094541;28;20492;-35
2021/12/18 07:12:48;;;;;;;25.80;12.87;;;;;;;1.11;100.00;97282.19;5094569;28;20469;-35
2021/12/18 07:15:17;;;;;;;17.63;9.07;;;;;;;1.06;100.00;97284.50;5093801;28;20442;-36
2021/12/18 07:17:44;;;;;;;14.50;8.67;;;;;;;0.82;100.00;97252.13;5094393;28;20444;-36
2021/12/18 07:20:13;;;;;;;14.87;8.27;;;;;;;0.92;100.00;97299.00;5093965;28;20450;-35
2021/12/18 07:22:40;;;;;;;13.30;7.80;;;;;;;0.68;100.00;97271.06;5093938;28;20954;-35
2021/12/18 07:25:11;;;;;;;22.60;9.57;;;;;;;0.84;100.00;97306.03;5094098;28;20439;-35
2021/12/18 07:27:38;;;;;;;25.57;16.07;;;;;;;0.83;100.00;97323.53;5093789;28;20434;-36
2021/12/18 07:30:08;;;;;;;27.73;15.63;;;;;;;0.92;100.00;97287.75;5093428;28;20502;-36
2021/12/18 07:32:35;;;;;;;35.37;17.37;;;;;;;0.98;100.00;97294.94;5093828;28;20879;-35
2021/12/18 07:35:02;;;;;;;23.50;11.70;;;;;;;1.00;100.00;97300.81;5094022;28;20443;-35
2021/12/18 07:37:29;;;;;;;32.17;15.20;;;;;;;1.04;100.00;97303.94;5093637;28;20447;-38
2021/12/18 07:39:57;;;;;;;42.77;19.00;;;;;;;1.10;100.00;97306.72;5093458;28;20809;-39
2021/12/18 07:42:25;;;;;;;28.40;16.40;;;;;;;1.08;100.00;97316.53;5092439;28;20446;-37
2021/12/18 07:44:53;;;;;;;22.50;12.13;;;;;;;1.14;100.00;97323.72;5093564;28;20971;-39
2021/12/18 07:47:20;;;;;;;20.37;9.37;;;;;;;1.18;100.00;97324.19;5093520;28;20451;-38
2021/12/18 07:49:47;;;;;;;20.30;9.67;;;;;;;1.15;100.00;97324.53;5093585;28;20503;-38
2021/12/18 07:52:15;;;;;;;14.53;8.30;;;;;;;1.21;100.00;97329.94;5093551;28;20797;-39
2021/12/18 07:54:42;;;;;;;23.73;12.43;;;;;;;1.16;100.00;97321.75;5093290;28;20447;-38
2021/12/18 07:57:09;;;;;;;106.23;45.00;;;;;;;1.28;100.00;97329.28;5093689;28;20447;-39
2021/12/18 07:59:39;;;;;;;80.63;29.40;;;;;;;1.30;100.00;97327.31;5093024;28;20439;-37
2021/12/18 08:02:06;;;;;;;40.57;16.30;;;;;;;1.36;100.00;97337.13;5095201;28;20943;-35
2021/12/18 08:04:38;;;;;;;18.93;10.90;;;;;;;1.28;100.00;97326.66;5095619;28;20934;-38
2021/12/18 08:07:08;;;;;;;37.07;16.70;;;;;;;1.11;100.00;97308.34;5095952;28;20431;-38
2021/12/18 08:09:37;;;;;;;35.20;18.90;;;;;;;1.39;100.00;97344.63;5095145;28;20493;-37
2021/12/18 08:12:05;;;;;;;31.87;17.83;;;;;;;1.46;100.00;97347.41;5095082;28;20446;-36
2021/12/18 08:14:33;;;;;;;39.87;15.30;;;;;;;1.42;100.00;97352.97;5095015;28;20810;-36
2021/12/18 08:17:02;;;;;;;57.77;26.20;;;;;;;1.36;100.00;97358.06;5095244;28;20443;-37
2021/12/18 08:19:30;;;;;;;14.13;9.60;;;;;;;1.38;100.00;97369.19;5094862;28;20439;-37
2021/12/18 08:21:57;;;;;;;9.57;8.50;;;;;;;1.31;100.00;97368.19;5095113;28;20453;-37
2021/12/18 08:24:26;;;;;;;21.70;12.40;;;;;;;1.27;100.00;97386.03;5095087;28;20764;-35
2021/12/18 08:26:54;;;;;;;30.90;14.53;;;;;;;1.33;100.00;97385.34;5094734;28;20443;-36
2021/12/18 08:29:21;;;;;;;27.90;16.13;;;;;;;1.35;100.00;97393.03;5094730;28;21045;-35
2021/12/18 08:31:48;;;;;;;18.60;9.30;;;;;;;1.35;100.00;97400.88;5094945;28;20447;-35
2021/12/18 08:34:17;;;;;;;19.60;10.47;;;;;;;1.23;100.00;97401.22;5094934;28;20443;-38
2021/12/18 08:36:51;;;;;;;21.10;12.70;;;;;;;1.19;100.00;97401.72;5095350;28;20446;-36
2021/12/18 08:39:39;;;;;;;20.43;13.70;;;;;;;0.91;100.00;97375.03;5094705;28;20500;-36
2021/12/18 08:42:07;;;;;;;15.10;8.50;;;;;;;1.13;100.00;97416.22;5094800;28;20861;-38
2021/12/18 08:44:35;;;;;;;13.73;8.23;;;;;;;1.14;100.00;97412.66;5094764;28;20813;-37
2021/12/18 08:47:03;;;;;;;20.33;11.03;;;;;;;1.15;100.00;97406.44;5094464;28;20450;-35
2021/12/18 08:49:33;;;;;;;24.60;11.97;;;;;;;1.26;100.00;97414.94;5094556;28;20830;-34
2021/12/18 08:52:00;;;;;;;25.07;12.63;;;;;;;1.31;100.00;97410.88;5094533;28;20469;-37
2021/12/18 08:54:27;;;;;;;29.63;15.33;;;;;;;1.42;100.00;97409.75;5094508;28;20443;-35
2021/12/18 08:56:54;;;;;;;41.47;22.63;;;;;;;1.56;100.00;97411.69;5094509;28;20447;-37
2021/12/18 08:59:22;;;;;;;29.07;14.20;;;;;;;1.71;100.00;97413.66;5094157;28;20435;-33
2021/12/18 09:01:49;;;;;;;31.40;18.50;;;;;;;1.86;100.00;97413.81;5094448;28;20435;-34
2021/12/18 09:04:16;;;;;;;40.93;23.97;;;;;;;1.87;100.00;97408.38;5094065;28;20443;-35
2021/12/18 09:06:46;;;;;;;26.40;14.43;;;;;;;1.99;100.00;97425.38;5094352;28;20546;-35
2021/12/18 09:09:13;;;;;;;34.43;18.97;;;;;;;1.93;100.00;97422.63;5094336;28;20478;-35
2021/12/18 09:11:40;;;;;;;19.87;12.67;;;;;;;1.81;100.00;97415.09;5094309;28;20449;-34
2021/12/18 09:14:07;;;;;;;7.47;6.13;;;;;;;1.81;100.00;97420.34;5091731;28;20465;-35
2021/12/18 09:16:35;;;;;;;17.57;9.07;;;;;;;1.85;100.00;97426.09;5091782;28;20942;-35
2021/12/18 09:19:02;;;;;;;21.10;12.27;;;;;;;2.01;100.00;97423.41;5091854;28;20992;-35
2021/12/18 09:21:29;;;;;;;13.23;8.73;;;;;;;2.23;100.00;97423.69;5091856;28;20450;-36
2021/12/18 09:23:58;;;;;;;10.37;7.20;;;;;;;2.43;100.00;97424.97;5092064;28;20473;-35
2021/12/18 09:26:26;;;;;;;25.60;11.63;;;;;;;2.53;100.00;97424.75;5091536;28;20447;-35
2021/12/18 09:28:53;;;;;;;16.77;9.60;;;;;;;2.56;100.00;97418.34;5091545;28;20486;-35
2021/12/18 09:31:20;;;;;;;28.33;15.60;;;;;;;2.58;99.93;97427.69;5091711;28;20443;-35
2021/12/18 09:33:49;;;;;;;25.73;12.70;;;;;;;2.59;100.00;97428.50;5091537;28;20442;-35
2021/12/18 09:36:17;;;;;;;11.67;8.10;;;;;;;2.56;100.00;97421.81;5091534;28;20804;-35
2021/12/18 09:38:44;;;;;;;37.77;19.03;;;;;;;2.54;99.72;97433.41;5091260;28;20443;-35
2021/12/18 09:41:13;;;;;;;37.07;18.03;;;;;;;2.43;99.08;97437.22;5091466;28;20443;-35
2021/12/18 09:43:41;;;;;;;46.23;19.67;;;;;;;2.37;99.63;97441.34;5091862;28;20458;-36
2021/12/18 09:46:10;;;;;;;23.73;10.07;;;;;;;2.29;100.00;97438.75;5091498;28;20468;-35
2021/12/18 09:48:38;;;;;;;26.00;13.00;;;;;;;2.29;100.00;97443.19;5091475;28;20434;-35
2021/12/18 09:51:11;;;;;;;25.60;16.47;;;;;;;2.29;100.00;97437.94;5091461;28;20443;-35
2021/12/18 09:53:39;;;;;;;27.87;16.37;;;;;;;2.29;100.00;97445.81;5091380;28;20476;-35
2021/12/18 09:56:08;;;;;;;19.83;12.10;;;;;;;2.15;100.00;97442.06;5091472;28;20447;-35
2021/12/18 09:58:36;;;;;;;21.13;13.17;;;;;;;2.12;100.00;97445.03;5091695;28;20453;-35
2021/12/18 10:01:04;;;;;;;14.60;8.63;;;;;;;2.08;100.00;97451.56;5091522;28;20508;-35
2021/12/18 10:03:49;;;;;;;17.60;9.47;;;;;;;2.03;100.00;97450.25;5091663;28;20439;-38
2021/12/18 10:06:36;;;;;;;16.73;10.17;;;;;;;1.96;100.00;97451.13;5094374;28;20439;-38
2021/12/18 10:09:06;;;;;;;8.60;7.27;;;;;;;1.80;100.00;97450.13;5095368;28;20927;-38
2021/12/18 10:11:34;;;;;;;11.30;7.70;;;;;;;1.77;100.00;97454.88;5095902;28;20454;-39
2021/12/18 10:14:04;;;;;;;20.10;12.23;;;;;;;1.62;100.00;97447.69;5095231;28;20443;-39
2021/12/18 10:16:32;;;;;;;7.87;4.67;;;;;;;1.53;100.00;97443.44;5095550;28;20431;-39
2021/12/18 10:19:01;;;;;;;19.30;8.40;;;;;;;1.44;100.00;97436.53;5094829;28;20438;-40
2021/12/18 10:21:30;;;;;;;13.63;9.13;;;;;;;1.47;100.00;97431.00;5095563;28;20496;-39
2021/12/18 10:24:14;;;;;;;11.40;5.80;;;;;;;1.50;100.00;97422.81;5095278;28;20445;-38
2021/12/18 10:26:45;;;;;;;14.50;6.50;;;;;;;1.45;100.00;97430.34;5095026;28;20426;-38
2021/12/18 10:29:30;;;;;;;32.97;11.60;;;;;;;1.32;100.00;97424.78;5094732;28;20492;-38
2021/12/18 10:32:05;;;;;;;12.10;6.00;;;;;;;1.33;100.00;97426.41;5094845;28;20463;-36
2021/12/18 10:34:33;;;;;;;11.37;3.80;;;;;;;1.40;100.00;97427.41;5094929;28;20484;-38
2021/12/18 10:37:19;;;;;;;6.03;4.20;;;;;;;1.37;100.00;97423.28;5094792;28;20831;-37
2021/12/18 10:39:58;;;;;;;12.27;7.00;;;;;;;1.49;100.00;97431.66;5094803;28;20435;-38
2021/12/18 10:42:28;;;;;;;26.40;11.07;;;;;;;1.54;100.00;97424.13;5094792;28;20431;-38
2021/12/18 10:45:16;;;;;;;48.60;14.93;;;;;;;1.64;100.00;97429.19;5095834;28;20777;-37
2021/12/18 10:47:46;;;;;;;6.00;5.40;;;;;;;1.74;100.00;97418.53;5097005;28;20445;-37
2021/12/18 10:50:19;;;;;;;15.00;7.20;;;;;;;1.84;100.00;97414.78;5096835;28;20490;-37
2021/12/18 10:52:52;;;;;;;15.50;7.13;;;;;;;2.00;100.00;97421.81;5096991;28;20461;-37
2021/12/18 10:55:19;;;;;;;22.40;10.37;;;;;;;2.18;100.00;97411.09;5097633;28;20454;-36
2021/12/18 10:57:52;;;;;;;33.83;16.90;;;;;;;2.34;100.00;97414.66;5096801;28;20447;-38
2021/12/18 11:00:31;;;;;;;17.60;11.50;;;;;;;2.51;99.52;97412.81;5096330;28;20419;-37
2021/12/18 11:02:59;;;;;;;34.17;16.70;;;;;;;2.69;98.67;97418.63;5096724;28;20929;-38
2021/12/18 11:05:26;;;;;;;24.13;8.40;;;;;;;2.75;96.33;97412.69;5094925;28;20456;-36
2021/12/18 11:08:09;;;;;;;16.50;9.23;;;;;;;2.85;95.75;97415.09;5094431;28;20521;-37
2021/12/18 11:10:54;;;;;;;18.93;6.23;;;;;;;2.84;94.76;97416.09;5094524;28;20565;-38
2021/12/18 11:13:41;;;;;;;6.47;4.20;;;;;;;2.82;94.60;97408.41;5094127;28;20487;-38
2021/12/18 11:16:10;;;;;;;25.07;17.07;;;;;;;2.76;92.42;97414.34;5093063;28;20518;-38
2021/12/18 11:18:37;;;;;;;24.47;13.47;;;;;;;2.70;92.83;97408.97;5093581;28;20446;-36
2021/12/18 11:21:05;;;;;;;17.13;9.53;;;;;;;2.66;94.15;97404.03;5094300;28;20958;-36
2021/12/18 11:23:39;;;;;;;5.40;4.57;;;;;;;2.71;93.49;97405.34;5093936;28;20435;-35
2021/12/18 11:26:08;;;;;;;6.83;4.63;;;;;;;2.67;92.68;97410.13;5094278;28;20431;-37
2021/12/18 11:28:43;;;;;;;9.60;4.93;;;;;;;2.73;91.50;97419.94;5093729;28;20471;-36
2021/12/18 11:31:12;;;;;;;29.37;17.47;;;;;;;2.58;90.84;97405.88;5093430;28;20478;-35
2021/12/18 11:33:40;;;;;;;21.23;9.83;;;;;;;2.57;92.06;97414.75;5093687;28;20540;-37
2021/12/18 11:36:09;;;;;;;16.13;10.03;;;;;;;2.42;90.29;97423.31;5094092;28;20443;-35
2021/12/18 11:38:39;;;;;;;12.70;7.50;;;;;;;2.32;90.67;97409.56;5093700;28;20943;-36
2021/12/18 11:41:06;;;;;;;15.53;7.53;;;;;;;2.31;92.00;97421.06;5093539;28;20451;-35
2021/12/18 11:43:36;;;;;;;6.57;3.00;;;;;;;2.27;91.74;97430.25;5093924;28;20446;-35
2021/12/18 11:46:25;;;;;;;4.37;2.83;;;;;;;2.18;91.17;97426.00;5093434;28;20995;-35
2021/12/18 11:48:54;;;;;;;5.53;3.20;;;;;;;2.07;92.87;97426.38;5093526;28;20447;-34
2021/12/18 11:51:22;;;;;;;6.50;4.40;;;;;;;2.04;95.31;97419.63;5093720;28;20514;-35
2021/12/18 11:53:49;;;;;;;9.33;5.53;;;;;;;2.02;95.67;97419.84;5093379;28;20462;-35
2021/12/18 11:56:16;;;;;;;8.13;4.53;;;;;;;2.05;96.46;97426.53;5094437;28;20439;-34
2021/12/18 11:58:46;;;;;;;22.30;10.30;;;;;;;2.10;96.96;97418.16;5095646;28;20447;-35
2021/12/18 12:01:16;;;;;;;42.00;17.57;;;;;;;2.14;96.90;97417.66;5095617;28;20451;-34
2021/12/18 12:03:46;;;;;;;8.37;6.53;;;;;;;2.22;96.97;97416.84;5095318;28;20424;-34